Anderson, Alaska
Current Conditions -  °F | °C
As of 4:53 PM on Tuesday 21 Oct 2014 (Local Time) from PANN Reporting Station
Overcast Overcast  
Wind Chill: 27°   Ceiling: 3000
Heat Index: 32°   Visibility: 10mi
Dew Point: 22°   Wind: 5mph
Humidity: 66%   Direction: 350°N
Pressure: 29.44"   Gusts: NA
Location:  64.34°N, 149.19°W
Report Text: PANN 220053Z AUTO 35004KT 10SM OVC030 00/M06 A2944 RMK AO2 SLP979 T00001056 TSNO
Loading
Personal Weather Stations






























Interactive Weather Map
Tropical Storm Tracking
New forecast layout! Learn more

10-Day Weather Forecast

Advertisements
Track Severe Weather on mobile